createdAt,value
2019-03-17T00:02:34.342Z,28.5
2019-03-17T00:05:40.377Z,28.5
2019-03-17T00:08:46.348Z,28.5
2019-03-17T00:11:52.309Z,28.5
2019-03-17T00:15:06.541Z,28.6
2019-03-17T00:18:12.718Z,28.6
2019-03-17T00:21:18.682Z,28.6
2019-03-17T00:24:24.617Z,28.6
2019-03-17T00:27:30.491Z,28.7
2019-03-17T00:30:36.507Z,28.6
2019-03-17T00:33:42.334Z,28.7
2019-03-17T00:36:48.376Z,28.7
2019-03-17T00:39:56.659Z,28.7
2019-03-17T00:43:02.957Z,28.7
2019-03-17T00:46:09.021Z,28.7
2019-03-17T00:49:14.893Z,28.7
2019-03-17T00:52:20.839Z,28.8
2019-03-17T00:55:26.798Z,28.8
2019-03-17T00:58:32.672Z,28.8
2019-03-17T01:01:38.718Z,28.7
2019-03-17T01:04:56.661Z,28.9
2019-03-17T01:08:02.731Z,28.8
2019-03-17T01:11:08.991Z,28.8
2019-03-17T01:14:14.858Z,28.8
2019-03-17T01:17:20.911Z,28.9
2019-03-17T01:20:26.868Z,28.8
2019-03-17T01:23:35.606Z,28.9
2019-03-17T01:26:41.557Z,28.9
2019-03-17T01:29:47.517Z,28.9
2019-03-17T01:32:53.569Z,29
2019-03-17T01:35:59.529Z,29
2019-03-17T01:39:08.151Z,29
2019-03-17T01:42:14.111Z,29
2019-03-17T01:45:22.733Z,29
2019-03-17T01:48:28.625Z,29
2019-03-17T01:51:34.549Z,29
2019-03-17T01:54:40.517Z,29
2019-03-17T01:57:46.469Z,29.1
2019-03-17T02:00:55.708Z,29.1
2019-03-17T02:04:01.768Z,29
2019-03-17T02:07:07.704Z,29.1
2019-03-17T02:10:13.794Z,29.1
2019-03-17T02:13:19.770Z,29.2
2019-03-17T02:16:25.915Z,29.1
2019-03-17T02:19:31.983Z,29.2
2019-03-17T02:22:37.842Z,29.2
2019-03-17T02:25:43.792Z,29.2
2019-03-17T02:28:49.663Z,29.2
2019-03-17T02:31:55.728Z,29.2
2019-03-17T02:35:01.682Z,29.2
2019-03-17T02:38:07.635Z,29.2
2019-03-17T02:41:13.505Z,29.2
2019-03-17T02:44:19.458Z,29.2
2019-03-17T02:47:25.420Z,29.3
2019-03-17T02:50:31.539Z,29.3
2019-03-17T02:53:37.746Z,29.3
2019-03-17T02:56:43.711Z,29.3
2019-03-17T02:59:49.597Z,29.3
2019-03-17T03:02:55.624Z,29.3
2019-03-17T03:06:01.586Z,29.4
2019-03-17T03:09:07.544Z,29.4
2019-03-17T03:12:13.612Z,29.4
2019-03-17T03:15:19.509Z,29.4
2019-03-17T03:18:25.555Z,29.4
2019-03-17T03:21:31.582Z,29.4
2019-03-17T03:24:37.485Z,29.5
2019-03-17T03:27:43.609Z,29.4
2019-03-17T03:30:49.560Z,29.5
2019-03-17T03:33:55.515Z,29.4
2019-03-17T03:37:01.393Z,29.5
2019-03-17T03:40:07.596Z,29.5
2019-03-17T03:43:13.497Z,29.5
2019-03-17T03:46:19.499Z,29.5
2019-03-17T03:49:25.728Z,29.5
2019-03-17T03:52:31.646Z,29.5
2019-03-17T03:55:41.690Z,29.6
2019-03-17T03:58:48.106Z,29.5
2019-03-17T04:01:54.082Z,29.5
2019-03-17T04:05:00.266Z,29.6
2019-03-17T04:08:06.623Z,29.6
2019-03-17T04:11:12.577Z,29.6
2019-03-17T04:14:18.452Z,29.6
2019-03-17T04:17:24.550Z,29.6
2019-03-17T04:20:30.534Z,29.6
2019-03-17T04:23:36.497Z,29.6
2019-03-17T04:26:42.446Z,29.6
2019-03-17T04:29:48.552Z,29.7
2019-03-17T04:32:54.577Z,29.7
2019-03-17T04:36:00.494Z,29.7
2019-03-17T04:39:06.528Z,29.6
2019-03-17T04:42:12.487Z,29.7
2019-03-17T04:45:18.438Z,29.6
2019-03-17T04:48:24.465Z,29.6
2019-03-17T04:51:30.459Z,29.6
2019-03-17T04:54:36.420Z,29.7
2019-03-17T04:57:42.379Z,29.7
2019-03-17T05:00:48.236Z,29.7
2019-03-17T05:03:54.289Z,29.6
2019-03-17T05:07:00.344Z,29.5
2019-03-17T05:10:06.237Z,29.4
2019-03-17T05:13:12.263Z,29.4
2019-03-17T05:16:18.219Z,29.2
2019-03-17T05:19:24.178Z,29.1
2019-03-17T05:22:30.067Z,29.1
2019-03-17T05:25:36.095Z,29
2019-03-17T05:28:41.978Z,28.9
2019-03-17T05:31:47.847Z,29
2019-03-17T05:34:53.878Z,28.9
2019-03-17T05:37:59.867Z,29.1
2019-03-17T05:41:05.790Z,28.7
2019-03-17T05:44:11.857Z,29
2019-03-17T05:47:17.821Z,28.8
2019-03-17T05:50:23.878Z,28.9
2019-03-17T05:53:29.759Z,28.8
2019-03-17T05:56:35.795Z,28.7
2019-03-17T05:59:41.677Z,28.9
2019-03-17T06:02:47.609Z,29
2019-03-17T06:05:53.748Z,28.9
2019-03-17T06:08:59.622Z,28.7
2019-03-17T06:12:05.692Z,28.9
2019-03-17T06:15:11.583Z,28.9
2019-03-17T06:18:17.611Z,28.7
2019-03-17T06:21:23.674Z,28.7
2019-03-17T06:24:29.546Z,28.6
2019-03-17T06:27:35.490Z,28.6
2019-03-17T06:30:41.430Z,28.5
2019-03-17T06:33:47.510Z,28.7
2019-03-17T06:36:53.572Z,28.6
2019-03-17T06:39:59.448Z,28.5
2019-03-17T06:43:05.497Z,28.5
2019-03-17T06:46:11.384Z,28.6
2019-03-17T06:49:17.318Z,28.7
2019-03-17T06:52:23.485Z,28.5
2019-03-17T06:55:29.639Z,28.5
2019-03-17T06:58:35.603Z,28.3
2019-03-17T07:01:41.568Z,28.4
2019-03-17T07:04:47.618Z,28.5
2019-03-17T07:07:56.325Z,28.4
2019-03-17T07:11:02.202Z,28.3
2019-03-17T07:14:08.129Z,28.4
2019-03-17T07:17:14.123Z,28.3
2019-03-17T07:20:22.947Z,28.3
2019-03-17T07:23:28.830Z,28.3
2019-03-17T07:26:37.943Z,28.1
2019-03-17T07:29:43.848Z,28.2
2019-03-17T07:32:52.417Z,28.1
2019-03-17T07:35:58.358Z,28
2019-03-17T07:39:12.662Z,28
2019-03-17T07:42:18.768Z,28
2019-03-17T07:45:25.094Z,28
2019-03-17T07:48:31.132Z,27.8
2019-03-17T07:51:39.686Z,27.7
2019-03-17T07:54:45.708Z,27.7
2019-03-17T07:57:51.702Z,27.6
2019-03-17T08:00:57.628Z,27.6
2019-03-17T08:04:06.492Z,27.6
2019-03-17T08:07:12.417Z,27.5
2019-03-17T08:10:21.252Z,27.6
2019-03-17T08:13:27.191Z,27.6
2019-03-17T08:16:33.262Z,27.6
2019-03-17T08:19:39.166Z,27.6
2019-03-17T08:22:45.080Z,27.5
2019-03-17T08:25:51.166Z,27.5
2019-03-17T08:28:57.129Z,27.5
2019-03-17T08:32:03.004Z,27.5
2019-03-17T08:35:09.123Z,27.5
2019-03-17T08:38:22.866Z,27.4
2019-03-17T08:41:29.032Z,27.5
2019-03-17T08:44:34.960Z,27.4
2019-03-17T08:47:40.948Z,27.4
2019-03-17T08:51:01.014Z,27.4
2019-03-17T08:54:07.101Z,27.4
2019-03-17T08:57:13.156Z,27.5
2019-03-17T09:00:19.122Z,27.4
2019-03-17T09:03:25.079Z,27.4
2019-03-17T09:06:30.953Z,27.3
2019-03-17T09:09:36.901Z,27.3
2019-03-17T09:12:42.862Z,27.2
2019-03-17T09:15:48.729Z,27.3
2019-03-17T09:18:54.781Z,27.2
2019-03-17T09:22:00.739Z,26.9
2019-03-17T09:25:06.696Z,26.9
2019-03-17T09:28:12.631Z,26.9
2019-03-17T09:31:18.612Z,26.8
2019-03-17T09:34:24.502Z,26.8
2019-03-17T09:37:30.426Z,26.8
2019-03-17T09:40:36.394Z,26.7
2019-03-17T09:43:42.358Z,26.6
2019-03-17T09:46:48.221Z,26.6
2019-03-17T09:49:54.161Z,26.6
2019-03-17T09:53:00.099Z,26.6
2019-03-17T09:56:06.085Z,26.6
2019-03-17T09:59:11.956Z,26.5
2019-03-17T10:02:17.900Z,26.5
2019-03-17T10:05:23.861Z,26.5
2019-03-17T10:08:29.823Z,26.5
2019-03-17T10:11:35.784Z,26.4
2019-03-17T10:14:41.652Z,26.3
2019-03-17T10:17:50.158Z,26.3
2019-03-17T10:20:56.117Z,26.2
2019-03-17T10:24:02.183Z,26.1
2019-03-17T10:27:08.139Z,26.2
2019-03-17T10:30:14.100Z,26.2
2019-03-17T10:33:20.067Z,26.2
2019-03-17T10:36:26.024Z,26.1
2019-03-17T10:39:32.113Z,26.2
2019-03-17T10:42:37.977Z,26.2
2019-03-17T10:45:44.002Z,26.1
2019-03-17T10:48:49.969Z,26.1
2019-03-17T10:51:56.016Z,26.2
2019-03-17T10:55:02.078Z,26.1
2019-03-17T10:58:07.954Z,26.1
2019-03-17T11:01:13.998Z,26
2019-03-17T11:04:19.906Z,26
2019-03-17T11:07:25.796Z,26
2019-03-17T11:10:31.779Z,26
2019-03-17T11:13:37.844Z,25.9
2019-03-17T11:16:44.003Z,26
2019-03-17T11:19:49.964Z,26
2019-03-17T11:22:55.925Z,26
2019-03-17T11:26:01.818Z,26
2019-03-17T11:29:07.746Z,25.9
2019-03-17T11:32:13.805Z,25.9
2019-03-17T11:35:19.676Z,25.8
2019-03-17T11:38:25.729Z,25.8
2019-03-17T11:41:31.607Z,25.8
2019-03-17T11:44:37.883Z,25.7
2019-03-17T11:47:43.755Z,25.7
2019-03-17T11:50:49.761Z,25.7
2019-03-17T11:53:55.721Z,25.6
2019-03-17T11:57:01.620Z,25.6
2019-03-17T12:00:07.849Z,25.9
2019-03-17T12:03:13.796Z,25.9
2019-03-17T12:06:19.873Z,26.1
2019-03-17T12:09:30.038Z,26
2019-03-17T12:12:36.196Z,25.8
2019-03-17T12:15:42.264Z,25.9
2019-03-17T12:18:48.152Z,25.7
2019-03-17T12:21:54.178Z,25.6
2019-03-17T12:25:13.194Z,25.5
2019-03-17T12:28:21.970Z,25.6
2019-03-17T12:31:28.029Z,25.4
2019-03-17T12:34:34.089Z,25.5
2019-03-17T12:37:39.987Z,25.4
2019-03-17T12:40:45.905Z,25.4
2019-03-17T12:43:51.837Z,25.3
2019-03-17T12:46:57.758Z,25.4
2019-03-17T12:50:03.653Z,25.3
2019-03-17T12:53:09.645Z,25.3
2019-03-17T12:56:15.736Z,25.5
2019-03-17T12:59:21.636Z,25.2
2019-03-17T13:02:27.630Z,25.1
2019-03-17T13:05:33.583Z,25
2019-03-17T13:08:39.644Z,25
2019-03-17T13:11:45.830Z,24.9
2019-03-17T13:14:51.787Z,24.9
2019-03-17T13:17:57.730Z,24.9
2019-03-17T13:21:03.691Z,24.8
2019-03-17T13:24:09.650Z,24.8
2019-03-17T13:27:15.531Z,24.7
2019-03-17T13:30:21.421Z,24.6
2019-03-17T13:33:27.435Z,24.6
2019-03-17T13:36:33.344Z,24.5
2019-03-17T13:39:39.342Z,24.5
2019-03-17T13:42:48.330Z,24.6
2019-03-17T13:45:54.242Z,24.6
2019-03-17T13:49:00.197Z,24.4
2019-03-17T13:52:06.066Z,24.4
2019-03-17T13:55:12.031Z,24.4
2019-03-17T13:58:17.973Z,24.3
2019-03-17T14:01:24.038Z,24.3
2019-03-17T14:04:29.999Z,24.2
2019-03-17T14:07:35.958Z,24.2
2019-03-17T14:10:42.332Z,24.1
2019-03-17T14:13:48.286Z,24.6
2019-03-17T14:16:54.163Z,24.8
2019-03-17T14:20:00.335Z,24.3
2019-03-17T14:23:06.260Z,24.6
2019-03-17T14:26:12.339Z,24.6
2019-03-17T14:29:18.280Z,25.3
2019-03-17T14:32:24.246Z,26.1
2019-03-17T14:35:30.309Z,26.1
2019-03-17T14:38:36.376Z,26.2
2019-03-17T14:41:42.427Z,25.2
2019-03-17T14:44:48.495Z,25.5
2019-03-17T14:47:54.457Z,25.7
2019-03-17T14:51:00.627Z,26.1
2019-03-17T14:54:06.590Z,27
2019-03-17T14:57:12.648Z,27.2
2019-03-17T15:00:18.510Z,26.6
2019-03-17T15:03:24.571Z,26.2
2019-03-17T15:06:30.622Z,25.5
2019-03-17T15:09:36.503Z,25.4
2019-03-17T15:12:42.579Z,24.7
2019-03-17T15:15:48.705Z,24.6
2019-03-17T15:19:07.664Z,24.6
2019-03-17T15:22:13.624Z,24.1
2019-03-17T15:25:19.588Z,24.3
2019-03-17T15:28:25.549Z,24.4
2019-03-17T15:31:31.605Z,24
2019-03-17T15:34:37.567Z,23.5
2019-03-17T15:37:46.392Z,23.4
2019-03-17T15:40:52.350Z,23.3
2019-03-17T15:43:58.311Z,23.2
2019-03-17T15:47:04.222Z,22.7
2019-03-17T15:50:10.248Z,23.1
2019-03-17T15:53:16.296Z,22.6
2019-03-17T15:56:22.252Z,22.7
2019-03-17T15:59:28.216Z,22.3
2019-03-17T16:02:34.281Z,22.2
2019-03-17T16:05:40.235Z,22.1
2019-03-17T16:08:46.195Z,22
2019-03-17T16:11:52.474Z,21.9
2019-03-17T16:14:58.381Z,22
2019-03-17T16:18:04.691Z,21.9
2019-03-17T16:21:10.567Z,21.9
2019-03-17T16:24:16.605Z,21.8
2019-03-17T16:27:22.568Z,21.8
2019-03-17T16:30:28.743Z,22.2
2019-03-17T16:33:34.796Z,22.2
2019-03-17T16:36:40.784Z,22.1
2019-03-17T16:39:47.058Z,22.1
2019-03-17T16:42:54.719Z,22.2
2019-03-17T16:46:00.782Z,22.1
2019-03-17T16:49:06.672Z,22.1
2019-03-17T16:52:15.259Z,22.2
2019-03-17T16:55:21.144Z,22.2
2019-03-17T16:58:27.282Z,22.4
2019-03-17T17:01:33.167Z,22.3
2019-03-17T17:04:39.205Z,22.4
2019-03-17T17:07:45.267Z,22.4
2019-03-17T17:10:51.537Z,22.5
2019-03-17T17:13:57.467Z,22.5
2019-03-17T17:17:03.450Z,22.5
2019-03-17T17:20:09.518Z,22.6
2019-03-17T17:23:15.581Z,22.6
2019-03-17T17:26:21.531Z,22.6
2019-03-17T17:29:40.906Z,22.7
2019-03-17T17:32:46.969Z,22.8
2019-03-17T17:35:53.175Z,22.9
2019-03-17T17:38:59.196Z,22.7
2019-03-17T17:42:10.682Z,22.8
2019-03-17T17:45:16.645Z,22.8
2019-03-17T17:48:22.603Z,22.7
2019-03-17T17:51:28.477Z,22.8
2019-03-17T17:54:34.522Z,22.8
2019-03-17T17:57:40.488Z,22.8
2019-03-17T18:00:46.547Z,22.9
2019-03-17T18:03:52.709Z,22.9
2019-03-17T18:06:58.669Z,22.9
2019-03-17T18:10:04.739Z,22.9
2019-03-17T18:13:10.793Z,22.9
2019-03-17T18:16:16.753Z,22.9
2019-03-17T18:19:22.808Z,23.1
2019-03-17T18:22:28.717Z,23.1
2019-03-17T18:25:34.836Z,23
2019-03-17T18:28:43.455Z,23.1
2019-03-17T18:31:49.421Z,23
2019-03-17T18:34:55.392Z,23.2
2019-03-17T18:38:01.651Z,23.3
2019-03-17T18:41:07.704Z,23.3
2019-03-17T18:44:13.615Z,23.4
2019-03-17T18:47:19.643Z,23.4
2019-03-17T18:50:25.699Z,23.5
2019-03-17T18:53:31.622Z,23.4
2019-03-17T18:56:37.606Z,23.6
2019-03-17T18:59:43.488Z,23.6
2019-03-17T19:02:49.424Z,23.6
2019-03-17T19:05:55.491Z,23.6
2019-03-17T19:09:01.527Z,23.7
2019-03-17T19:12:07.507Z,23.7
2019-03-17T19:15:13.478Z,23.7
2019-03-17T19:18:19.428Z,23.9
2019-03-17T19:21:25.316Z,23.8
2019-03-17T19:24:31.194Z,23.9
2019-03-17T19:27:37.205Z,23.9
2019-03-17T19:30:43.075Z,24
2019-03-17T19:33:49.039Z,24
2019-03-17T19:36:55.090Z,24.1
2019-03-17T19:40:02.075Z,24.1
2019-03-17T19:43:07.934Z,24.2
2019-03-17T19:46:13.958Z,24.2
2019-03-17T19:49:22.630Z,24.3
2019-03-17T19:52:28.676Z,24.2
2019-03-17T19:55:34.543Z,24.3
2019-03-17T19:58:41.307Z,24.4
2019-03-17T20:01:47.266Z,24.4
2019-03-17T20:04:53.232Z,24.4
2019-03-17T20:07:59.292Z,24.5
2019-03-17T20:11:05.248Z,24.5
2019-03-17T20:14:11.114Z,24.5
2019-03-17T20:17:17.174Z,24.5
2019-03-17T20:20:23.244Z,24.6
2019-03-17T20:23:29.300Z,24.6
2019-03-17T20:26:35.243Z,24.7
2019-03-17T20:29:41.141Z,24.7
2019-03-17T20:32:47.173Z,24.8
2019-03-17T20:35:53.107Z,24.8
2019-03-17T20:38:59.325Z,24.8
2019-03-17T20:42:05.262Z,24.9
2019-03-17T20:45:11.208Z,24.9
2019-03-17T20:48:17.625Z,24.9
2019-03-17T20:51:24.868Z,25
2019-03-17T20:54:30.833Z,25
2019-03-17T20:57:36.783Z,25.1
2019-03-17T21:00:42.742Z,25.1
2019-03-17T21:03:48.805Z,25.1
2019-03-17T21:06:54.770Z,25.1
2019-03-17T21:10:00.950Z,25.2
2019-03-17T21:13:06.904Z,25.2
2019-03-17T21:16:12.764Z,25.2
2019-03-17T21:19:18.705Z,25.3
2019-03-17T21:22:24.769Z,25.3
2019-03-17T21:25:30.738Z,25.3
2019-03-17T21:28:36.706Z,25.3
2019-03-17T21:31:42.746Z,25.3
2019-03-17T21:34:48.706Z,25.4
2019-03-17T21:37:54.669Z,25.4
2019-03-17T21:41:07.794Z,25.4
2019-03-17T21:44:13.754Z,25.5
2019-03-17T21:47:19.639Z,25.5
2019-03-17T21:50:25.578Z,25.6
2019-03-17T21:53:31.538Z,25.6
2019-03-17T21:56:37.469Z,25.6
2019-03-17T21:59:43.460Z,25.7
2019-03-17T22:02:49.335Z,25.7
2019-03-17T22:05:58.547Z,25.8
2019-03-17T22:09:04.852Z,25.7
2019-03-17T22:12:11.080Z,25.8
2019-03-17T22:15:17.143Z,25.8
2019-03-17T22:18:23.100Z,25.9
2019-03-17T22:21:29.060Z,25.9
2019-03-17T22:24:34.939Z,26
2019-03-17T22:27:40.977Z,26
2019-03-17T22:30:47.156Z,26
2019-03-17T22:33:53.137Z,26
2019-03-17T22:36:59.279Z,26
2019-03-17T22:40:05.244Z,26
2019-03-17T22:43:11.283Z,26.1
2019-03-17T22:46:17.321Z,26
2019-03-17T22:49:23.198Z,26.1
2019-03-17T22:52:29.272Z,26.1
2019-03-17T22:55:35.219Z,26.1
2019-03-17T22:58:41.184Z,26.1
2019-03-17T23:01:47.056Z,26.2
2019-03-17T23:04:53.002Z,26.2
2019-03-17T23:07:58.933Z,26.2
2019-03-17T23:11:05.123Z,26.2
2019-03-17T23:14:11.084Z,26.2
2019-03-17T23:17:17.042Z,26.2
2019-03-17T23:20:23.107Z,26.2
2019-03-17T23:23:29.171Z,26.3
2019-03-17T23:26:35.132Z,26.3
2019-03-17T23:29:41.192Z,26.3
2019-03-17T23:32:50.019Z,26.3
2019-03-17T23:35:56.077Z,26.3
2019-03-17T23:39:02.020Z,26.3
2019-03-17T23:42:07.997Z,26.3
2019-03-17T23:45:13.954Z,26.3
2019-03-17T23:48:19.836Z,26.3
2019-03-17T23:51:25.771Z,26.3
2019-03-17T23:54:31.652Z,26.3
2019-03-17T23:57:37.693Z,26.4
